Time;durP1;ratioP1;P1;durP2;ratioP2;P2;SDS_P1;SDS_P2;PMS_P1;PMS_P2;Temp;Humidity;BMP_temperature;BMP_pressure;BME280_temperature;BME280_humidity;BME280_pressure;Samples;Min_cycle;Max_cycle;Signal;HPM_P1;HPM_P2
2022/06/29 00:02:16;;;;;;;5.40;4.90;;;17.10;37.30;;;;;;5053998;28;20179;-70
2022/06/29 00:04:42;;;;;;;6.13;5.33;;;17.10;37.80;;;;;;5071359;28;20182;-68
2022/06/29 00:07:07;;;;;;;6.30;4.97;;;17.00;38.30;;;;;;5073873;28;20411;-70
2022/06/29 00:09:33;;;;;;;5.00;4.50;;;17.00;37.70;;;;;;5073355;28;20185;-70
2022/06/29 00:11:58;;;;;;;6.63;5.03;;;17.00;37.70;;;;;;5073718;28;20545;-70
2022/06/29 00:14:24;;;;;;;8.40;5.60;;;16.90;38.30;;;;;;5073707;28;20236;-69
2022/06/29 00:16:49;;;;;;;7.20;5.03;;;17.00;38.90;;;;;;5056434;28;20264;-70
2022/06/29 00:19:15;;;;;;;5.80;5.20;;;16.90;38.50;;;;;;5053525;28;20181;-70
2022/06/29 00:21:40;;;;;;;5.83;5.07;;;16.90;38.30;;;;;;5053533;28;20202;-70
2022/06/29 00:24:06;;;;;;;6.63;5.60;;;16.90;38.50;;;;;;5053534;28;20265;-70
2022/06/29 00:26:32;;;;;;;6.17;5.57;;;16.80;39.00;;;;;;5053551;28;20199;-70
2022/06/29 00:28:57;;;;;;;5.30;4.77;;;16.80;39.60;;;;;;5069604;28;20243;-70
2022/06/29 00:31:23;;;;;;;6.37;5.63;;;16.80;39.30;;;;;;5073363;28;20201;-70
2022/06/29 00:33:49;;;;;;;6.77;6.17;;;16.70;39.30;;;;;;5073267;28;20741;-68
2022/06/29 00:36:14;;;;;;;4.80;4.33;;;16.80;39.70;;;;;;5073755;28;20785;-70
2022/06/29 00:38:40;;;;;;;6.47;4.97;;;16.70;39.50;;;;;;5072266;28;20614;-69
2022/06/29 00:41:05;;;;;;;6.37;5.20;;;16.60;39.60;;;;;;5052220;28;20205;-70
2022/06/29 00:43:40;;;;;;;5.23;4.73;;;16.60;39.70;;;;;;5053122;28;20658;-69
2022/06/29 00:46:06;;;;;;;5.97;5.40;;;16.50;39.90;;;;;;5051880;28;20184;-69
2022/06/29 00:48:31;;;;;;;6.77;6.07;;;16.40;40.50;;;;;;5052617;28;20488;-69
2022/06/29 00:51:00;;;;;;;6.43;5.83;;;16.50;40.60;;;;;;5052867;28;20637;-68
2022/06/29 00:53:30;;;;;;;6.80;6.10;;;16.50;40.40;;;;;;5072381;28;20343;-68
2022/06/29 00:55:57;;;;;;;8.20;6.03;;;16.40;40.10;;;;;;5072892;28;20503;-69
2022/06/29 00:58:25;;;;;;;8.07;5.70;;;16.30;41.50;;;;;;5072146;28;20485;-69
2022/06/29 01:00:50;;;;;;;5.40;4.77;;;16.30;41.70;;;;;;5071318;28;20460;-70
2022/06/29 01:03:16;;;;;;;6.40;5.40;;;16.40;41.90;;;;;;5070618;28;20419;-70
2022/06/29 01:05:41;;;;;;;6.17;5.57;;;16.50;41.20;;;;;;5052828;28;20179;-69
2022/06/29 01:08:07;;;;;;;7.70;5.10;;;16.50;41.50;;;;;;5052397;28;20174;-70
2022/06/29 01:10:33;;;;;;;5.90;5.10;;;16.50;40.60;;;;;;5052674;28;20205;-70
2022/06/29 01:12:58;;;;;;;6.43;5.80;;;16.50;40.30;;;;;;5067264;28;20213;-69
2022/06/29 01:15:24;;;;;;;7.07;5.63;;;16.50;40.70;;;;;;5072423;28;20197;-69
2022/06/29 01:17:49;;;;;;;6.93;6.23;;;16.50;40.80;;;;;;5072461;28;20594;-70
2022/06/29 01:20:15;;;;;;;8.33;6.27;;;16.40;40.90;;;;;;5070689;28;20194;-69
2022/06/29 01:22:41;;;;;;;9.50;6.40;;;16.40;42.10;;;;;;5060551;28;20198;-68
2022/06/29 01:25:07;;;;;;;6.53;5.80;;;16.40;41.90;;;;;;5054463;28;20191;-69
2022/06/29 01:27:32;;;;;;;5.70;5.13;;;16.40;41.90;;;;;;5053347;28;20217;-68
2022/06/29 01:29:58;;;;;;;7.87;6.10;;;16.40;41.40;;;;;;5051760;28;20454;-68
2022/06/29 01:32:24;;;;;;;8.67;5.70;;;16.40;41.50;;;;;;5052137;28;20670;-68
2022/06/29 01:34:50;;;;;;;6.73;5.33;;;16.40;41.60;;;;;;5069800;28;20430;-69
2022/06/29 01:37:16;;;;;;;7.23;6.57;;;16.50;41.20;;;;;;5072174;28;20709;-69
2022/06/29 01:39:42;;;;;;;6.13;4.97;;;16.40;41.20;;;;;;5071679;28;20496;-70
2022/06/29 01:42:08;;;;;;;6.03;5.50;;;16.40;40.80;;;;;;5070807;28;20574;-69
2022/06/29 01:44:35;;;;;;;5.20;4.30;;;16.30;41.30;;;;;;5071183;28;20413;-69
2022/06/29 01:47:01;;;;;;;7.10;6.40;;;16.40;41.50;;;;;;5051972;28;20807;-68
2022/06/29 01:49:28;;;;;;;7.00;5.53;;;16.40;40.70;;;;;;5051535;28;20433;-69
2022/06/29 01:51:54;;;;;;;6.13;5.53;;;16.40;40.80;;;;;;5051356;28;20490;-69
2022/06/29 01:54:19;;;;;;;6.03;5.17;;;16.40;40.90;;;;;;5051883;28;20408;-69
2022/06/29 01:56:45;;;;;;;6.63;5.37;;;16.40;40.50;;;;;;5052255;28;20409;-69
2022/06/29 01:59:11;;;;;;;5.57;5.07;;;16.40;40.30;;;;;;5071507;28;20170;-70
2022/06/29 02:01:36;;;;;;;7.07;5.60;;;16.40;40.90;;;;;;5070187;28;20684;-70
2022/06/29 02:04:02;;;;;;;7.00;6.40;;;16.40;40.90;;;;;;5071888;28;20178;-70
2022/06/29 02:06:27;;;;;;;5.70;5.20;;;16.50;40.10;;;;;;5071786;28;20176;-68
2022/06/29 02:08:53;;;;;;;6.10;5.50;;;16.50;40.10;;;;;;5069281;28;20174;-68
2022/06/29 02:11:19;;;;;;;6.70;5.23;;;16.40;40.40;;;;;;5051601;28;20198;-68
2022/06/29 02:13:46;;;;;;;9.70;5.07;;;16.30;40.10;;;;;;5051494;28;20230;-69
2022/06/29 02:16:12;;;;;;;5.83;5.00;;;16.30;40.70;;;;;;5051662;28;20405;-68
2022/06/29 02:18:37;;;;;;;6.90;6.20;;;16.20;41.10;;;;;;5051316;28;20412;-67
2022/06/29 02:21:03;;;;;;;6.70;5.30;;;16.10;41.60;;;;;;5056810;28;20700;-70
2022/06/29 02:23:29;;;;;;;6.43;5.83;;;16.10;41.60;;;;;;5071363;28;20177;-70
2022/06/29 02:25:54;;;;;;;5.87;5.10;;;16.10;41.60;;;;;;5071586;28;20411;-70
2022/06/29 02:28:20;;;;;;;6.40;5.80;;;16.10;41.60;;;;;;5071220;28;20543;-70
2022/06/29 02:36:14;;;;;;;6.53;5.93;;;16.00;41.50;;;;;;5051497;28;20459;-69
2022/06/29 02:38:39;;;;;;;6.40;5.80;;;16.00;41.50;;;;;;5049706;28;20429;-70
2022/06/29 02:41:05;;;;;;;6.30;5.67;;;16.00;41.50;;;;;;5051382;28;20194;-70
2022/06/29 02:43:31;;;;;;;6.67;6.07;;;15.90;41.60;;;;;;5051455;28;20603;-70
2022/06/29 02:45:57;;;;;;;5.90;4.93;;;16.00;42.10;;;;;;5065055;28;20641;-69
2022/06/29 02:48:22;;;;;;;5.37;4.87;;;16.00;41.80;;;;;;5071011;28;20201;-70
2022/06/29 02:50:48;;;;;;;7.27;6.17;;;16.00;41.50;;;;;;5071310;28;20460;-71
2022/06/29 02:53:13;;;;;;;6.03;5.43;;;16.00;41.50;;;;;;5071130;28;20205;-70
2022/06/29 02:55:39;;;;;;;6.03;5.43;;;16.00;41.50;;;;;;5071374;28;20271;-71
2022/06/29 02:58:05;;;;;;;8.10;6.83;;;16.00;41.50;;;;;;5054151;28;20178;-67
2022/06/29 03:00:30;;;;;;;9.40;5.60;;;16.10;41.60;;;;;;5050956;28;20223;-68
2022/06/29 03:02:56;;;;;;;6.40;5.80;;;16.10;41.20;;;;;;5051104;28;20220;-69
2022/06/29 03:05:21;;;;;;;5.73;4.73;;;16.00;41.50;;;;;;5054437;28;20182;-68
2022/06/29 03:07:47;;;;;;;6.00;5.40;;;16.00;41.60;;;;;;5054879;28;20178;-71
2022/06/29 03:10:12;;;;;;;7.13;6.43;;;15.90;41.40;;;;;;5073389;28;20202;-70
2022/06/29 03:12:38;;;;;;;7.27;6.67;;;15.90;41.40;;;;;;5074823;28;20263;-70
2022/06/29 03:15:04;;;;;;;7.00;5.40;;;15.90;41.40;;;;;;5074861;28;20249;-69
2022/06/29 03:17:30;;;;;;;6.37;5.40;;;15.90;41.40;;;;;;5073734;28;20184;-69
2022/06/29 03:19:55;;;;;;;6.70;6.10;;;15.90;41.40;;;;;;5073670;28;20428;-69
2022/06/29 03:22:21;;;;;;;6.10;5.10;;;15.90;41.50;;;;;;5071106;28;20186;-68
2022/06/29 03:24:46;;;;;;;6.00;5.40;;;15.90;41.50;;;;;;5074702;28;20259;-68
2022/06/29 03:27:12;;;;;;;6.63;5.90;;;15.90;41.50;;;;;;5074772;28;20265;-67
2022/06/29 03:29:37;;;;;;;13.37;6.00;;;15.90;41.50;;;;;;5074563;28;20877;-67
2022/06/29 03:32:03;;;;;;;7.10;6.40;;;15.80;41.30;;;;;;5074603;28;20201;-68
2022/06/29 03:34:29;;;;;;;10.87;5.93;;;15.80;41.40;;;;;;5054907;28;20189;-67
2022/06/29 03:36:54;;;;;;;7.37;6.53;;;15.80;41.30;;;;;;5055064;28;20451;-68
2022/06/29 03:39:20;;;;;;;5.90;5.30;;;15.80;41.30;;;;;;5054279;28;20258;-67
2022/06/29 03:41:45;;;;;;;7.50;5.80;;;15.80;41.40;;;;;;5054342;28;20212;-67
2022/06/29 03:44:10;;;;;;;6.60;5.97;;;15.80;41.30;;;;;;5054560;28;20174;-66
2022/06/29 03:46:36;;;;;;;6.63;5.93;;;15.80;41.70;;;;;;5073670;28;20195;-68
2022/06/29 03:49:02;;;;;;;8.50;7.07;;;15.80;42.00;;;;;;5073738;28;20181;-68
2022/06/29 03:51:27;;;;;;;7.47;6.40;;;15.80;41.30;;;;;;5074146;28;20198;-66
2022/06/29 03:53:53;;;;;;;5.50;4.80;;;15.90;41.50;;;;;;5074834;28;20490;-67
2022/06/29 03:56:19;;;;;;;7.83;5.50;;;15.90;41.60;;;;;;5073240;28;20656;-67
2022/06/29 03:58:45;;;;;;;8.07;6.37;;;15.80;42.00;;;;;;5053951;28;20228;-67
2022/06/29 04:01:10;;;;;;;6.07;5.47;;;15.90;41.40;;;;;;5054419;28;20457;-67
2022/06/29 04:03:36;;;;;;;6.33;4.13;;;16.00;41.50;;;;;;5054023;28;20255;-68
2022/06/29 04:06:02;;;;;;;5.57;5.07;;;16.20;41.00;;;;;;5053808;28;20205;-68
2022/06/29 04:08:27;;;;;;;6.17;5.10;;;16.20;40.50;;;;;;5055403;28;20178;-68
2022/06/29 04:10:53;;;;;;;5.80;5.20;;;16.30;40.60;;;;;;5074919;28;20677;-68
2022/06/29 04:13:18;;;;;;;6.13;5.53;;;16.40;40.10;;;;;;5074606;28;20256;-67
2022/06/29 04:15:44;;;;;;;5.80;5.17;;;16.50;39.40;;;;;;5073375;28;20281;-67
2022/06/29 04:18:09;;;;;;;5.87;5.27;;;16.60;38.80;;;;;;5074823;28;20700;-68
2022/06/29 04:23:19;;;;;;;6.30;5.70;;;16.80;37.50;;;;;;5055391;28;20190;-69
2022/06/29 04:25:45;;;;;;;4.97;4.50;;;16.90;37.10;;;;;;5054922;28;20425;-68
2022/06/29 04:28:11;;;;;;;6.13;5.53;;;17.00;36.60;;;;;;5054427;28;20179;-69
2022/06/29 04:30:36;;;;;;;6.37;4.63;;;17.00;36.30;;;;;;5053330;28;20579;-69
2022/06/29 04:33:02;;;;;;;5.53;4.33;;;17.00;36.40;;;;;;5059306;28;20704;-68
2022/06/29 04:35:27;;;;;;;8.03;4.73;;;16.90;36.30;;;;;;5074454;28;20181;-68
2022/06/29 04:37:53;;;;;;;5.40;4.90;;;17.00;35.80;;;;;;5074237;28;20174;-68
2022/06/29 04:40:18;;;;;;;4.57;4.17;;;16.90;36.40;;;;;;5073010;28;20343;-70
2022/06/29 04:42:44;;;;;;;5.53;4.03;;;17.00;36.20;;;;;;5073186;28;20169;-70
2022/06/29 04:46:19;;;;;;;7.30;4.33;;;17.10;35.50;;;;;;5066193;28;20179;-70
2022/06/29 04:48:00;;;;;;;4.80;4.40;;;17.20;34.90;;;;;;5052617;28;20191;-68
2022/06/29 04:50:27;;;;;;;5.97;5.37;;;17.40;33.20;;;;;;5053189;28;20444;-70
2022/06/29 04:52:53;;;;;;;6.30;4.77;;;17.50;32.70;;;;;;5053833;28;20514;-69
2022/06/29 04:55:19;;;;;;;7.53;4.70;;;17.50;32.70;;;;;;5052877;28;20405;-69
2022/06/29 04:57:45;;;;;;;7.97;5.63;;;17.70;32.50;;;;;;5062448;28;20599;-70
2022/06/29 05:00:11;;;;;;;4.87;4.47;;;17.90;32.10;;;;;;5072343;28;20555;-69
2022/06/29 05:02:36;;;;;;;7.27;4.67;;;18.10;32.10;;;;;;5072971;28;20503;-69
2022/06/29 05:05:02;;;;;;;5.33;4.83;;;18.20;31.40;;;;;;5072817;28;20451;-69
2022/06/29 05:07:27;;;;;;;5.60;5.10;;;18.40;30.70;;;;;;5072761;28;20178;-70
2022/06/29 05:09:53;;;;;;;6.60;5.90;;;18.60;29.70;;;;;;5063072;28;20642;-70
2022/06/29 05:12:19;;;;;;;5.63;5.10;;;18.70;29.10;;;;;;5051255;28;20202;-68
2022/06/29 05:14:45;;;;;;;5.87;5.37;;;18.90;29.10;;;;;;5052635;28;20421;-69
2022/06/29 05:17:10;;;;;;;5.30;4.90;;;19.00;28.60;;;;;;5051224;28;20652;-70
2022/06/29 05:19:36;;;;;;;10.13;5.33;;;19.20;28.70;;;;;;5050972;28;20217;-71
2022/06/29 05:22:01;;;;;;;8.00;6.20;;;19.30;27.10;;;;;;5064032;28;20264;-70
2022/06/29 05:24:27;;;;;;;7.47;4.90;;;19.50;27.00;;;;;;5070760;28;20273;-69
2022/06/29 05:26:53;;;;;;;6.00;4.63;;;19.50;27.00;;;;;;5071772;28;20180;-70
2022/06/29 05:29:19;;;;;;;6.27;5.00;;;19.50;27.00;;;;;;5071837;28;20201;-69
2022/06/29 05:31:45;;;;;;;5.80;5.30;;;19.70;27.40;;;;;;5072320;28;20181;-70
2022/06/29 05:34:10;;;;;;;7.43;4.40;;;19.90;26.90;;;;;;5058799;28;20468;-69
2022/06/29 05:36:36;;;;;;;4.97;4.53;;;20.10;26.30;;;;;;5052194;28;20178;-70
2022/06/29 05:39:01;;;;;;;5.40;5.00;;;20.30;25.40;;;;;;5052038;28;20178;-70
2022/06/29 05:41:27;;;;;;;5.40;5.00;;;20.30;25.40;;;;;;5052072;28;20274;-70
2022/06/29 05:43:52;;;;;;;5.37;4.90;;;20.40;25.50;;;;;;5052230;28;20182;-70
2022/06/29 05:46:19;;;;;;;6.67;6.00;;;20.40;25.50;;;;;;5053935;28;20194;-70
2022/06/29 05:48:45;;;;;;;5.43;4.93;;;20.40;25.20;;;;;;5054028;28;20167;-70
2022/06/29 05:51:11;;;;;;;5.33;4.83;;;20.40;25.50;;;;;;5054441;28;20834;-71
2022/06/29 05:53:36;;;;;;;5.50;4.67;;;20.40;25.80;;;;;;5054172;28;20563;-70
2022/06/29 05:56:02;;;;;;;5.47;4.97;;;20.30;25.50;;;;;;5053160;28;20171;-70
2022/06/29 05:58:28;;;;;;;5.00;4.60;;;20.30;25.40;;;;;;5069224;28;20324;-70
2022/06/29 06:00:53;;;;;;;5.80;5.30;;;20.30;25.40;;;;;;5070080;28;21061;-69
2022/06/29 06:03:19;;;;;;;5.60;5.20;;;20.20;25.90;;;;;;5070489;28;20566;-69
2022/06/29 06:05:45;;;;;;;8.80;5.40;;;20.30;26.00;;;;;;5070422;28;20177;-70
2022/06/29 06:08:13;;;;;;;5.13;4.70;;;20.30;26.00;;;;;;5070298;28;20170;-70
2022/06/29 06:10:39;;;;;;;4.87;4.37;;;20.30;25.80;;;;;;5071289;28;20440;-70
2022/06/29 06:13:05;;;;;;;6.43;5.90;;;20.30;26.10;;;;;;5071710;28;20500;-70
2022/06/29 06:15:32;;;;;;;8.53;5.37;;;20.40;25.50;;;;;;5070168;28;21031;-70
2022/06/29 06:17:58;;;;;;;10.30;6.30;;;20.40;25.50;;;;;;5071800;28;20413;-67
2022/06/29 06:20:23;;;;;;;6.60;5.93;;;20.50;25.60;;;;;;5067171;28;20449;-73
2022/06/29 06:22:49;;;;;;;6.07;5.57;;;20.50;25.60;;;;;;5052524;28;20183;-70
2022/06/29 06:25:14;;;;;;;6.60;6.00;;;20.40;25.50;;;;;;5051635;28;20171;-70
2022/06/29 06:27:41;;;;;;;10.83;7.97;;;20.50;25.60;;;;;;5051554;28;20671;-69
2022/06/29 06:30:06;;;;;;;6.30;5.70;;;20.60;25.70;;;;;;5062668;28;20313;-69
2022/06/29 06:32:32;;;;;;;8.80;7.90;;;20.60;25.60;;;;;;5059429;28;20510;-70
2022/06/29 06:34:58;;;;;;;6.70;6.10;;;20.70;24.90;;;;;;5067482;28;20929;-70
2022/06/29 06:37:23;;;;;;;5.30;4.90;;;20.70;25.40;;;;;;5085490;28;20230;-70
2022/06/29 06:42:33;;;;;;;7.30;6.60;;;21.00;23.80;;;;;;5080597;28;20197;-70
2022/06/29 06:44:58;;;;;;;6.57;6.07;;;21.30;23.90;;;;;;5069598;28;20428;-70
2022/06/29 06:47:24;;;;;;;7.70;7.13;;;21.60;24.00;;;;;;5071359;28;20243;-71
2022/06/29 06:49:49;;;;;;;7.27;6.80;;;21.90;22.80;;;;;;5071690;28;20281;-71
2022/06/29 06:52:17;;;;;;;8.80;8.00;;;22.20;22.40;;;;;;5070912;28;20182;-71
2022/06/29 06:54:44;;;;;;;7.93;7.10;;;22.50;21.90;;;;;;5061892;28;20179;-68
2022/06/29 06:57:11;;;;;;;8.50;7.90;;;22.80;21.40;;;;;;5052287;28;20424;-70
2022/06/29 06:59:37;;;;;;;9.37;8.87;;;23.20;19.90;;;;;;5054384;28;20499;-69
2022/06/29 07:02:03;;;;;;;10.90;10.30;;;23.40;18.90;;;;;;5050772;28;20535;-68
2022/06/29 07:04:28;;;;;;;10.80;10.10;;;23.80;19.10;;;;;;5051700;28;20861;-69
2022/06/29 07:06:54;;;;;;;11.40;10.60;;;24.40;16.70;;;;;;5064142;28;20194;-70
2022/06/29 07:09:19;;;;;;;11.33;10.77;;;24.90;15.90;;;;;;5074772;28;20217;-70
2022/06/29 07:11:45;;;;;;;12.87;12.17;;;25.60;15.80;;;;;;5075026;28;20263;-71
2022/06/29 07:14:10;;;;;;;13.50;12.67;;;26.10;14.00;;;;;;5074660;28;20217;-70
2022/06/29 07:16:36;;;;;;;11.50;11.00;;;26.50;13.20;;;;;;5074976;28;20186;-70
2022/06/29 07:19:02;;;;;;;13.17;12.47;;;26.80;13.80;;;;;;5054870;28;20254;-69
2022/06/29 07:21:27;;;;;;;13.40;12.67;;;27.30;12.20;;;;;;5053318;28;20289;-71
2022/06/29 07:23:58;;;;;;;13.40;12.50;;;27.30;11.50;;;;;;5054780;28;20197;-70
2022/06/29 07:26:26;;;;;;;13.53;12.80;;;27.30;12.20;;;;;;5052890;28;20182;-69
2022/06/29 07:28:52;;;;;;;13.80;13.10;;;27.20;11.10;;;;;;5061843;28;20438;-70
2022/06/29 07:31:18;;;;;;;14.67;13.87;;;27.40;12.10;;;;;;5054860;28;20457;-70
2022/06/29 07:33:43;;;;;;;14.93;14.03;;;27.80;11.70;;;;;;5058715;28;20249;-69
2022/06/29 07:36:09;;;;;;;14.07;13.37;;;28.10;10.50;;;;;;5054521;28;20522;-69
2022/06/29 07:38:35;;;;;;;13.60;12.90;;;27.90;9.50;;;;;;5053571;28;20186;-69
2022/06/29 07:41:01;;;;;;;13.20;12.50;;;27.50;10.50;;;;;;5073263;28;20205;-68
2022/06/29 07:43:27;;;;;;;14.07;13.10;;;27.40;10.70;;;;;;5064799;28;20486;-69
2022/06/29 07:45:54;;;;;;;13.67;13.07;;;27.70;10.80;;;;;;5058189;28;20190;-69
2022/06/29 07:48:20;;;;;;;14.00;13.40;;;27.90;10.00;;;;;;5073893;28;20965;-68
2022/06/29 07:50:45;;;;;;;13.70;13.10;;;27.90;9.90;;;;;;5069851;28;20453;-69
2022/06/29 07:53:11;;;;;;;14.57;13.73;;;28.00;9.90;;;;;;5060122;28;20202;-68
2022/06/29 07:55:37;;;;;;;14.43;13.47;;;28.20;9.40;;;;;;5061890;28;20206;-69
2022/06/29 07:58:02;;;;;;;13.97;13.30;;;28.10;9.70;;;;;;5051712;28;20198;-68
2022/06/29 08:00:28;;;;;;;12.90;12.30;;;28.20;9.20;;;;;;5053634;28;20218;-69
2022/06/29 08:02:55;;;;;;;13.53;12.83;;;28.20;9.90;;;;;;5052992;28;20537;-69
2022/06/29 08:05:21;;;;;;;14.10;13.03;;;28.00;9.60;;;;;;5052918;28;20409;-69
2022/06/29 08:07:47;;;;;;;13.60;12.90;;;28.00;9.80;;;;;;5056580;28;20493;-69
2022/06/29 08:10:13;;;;;;;13.00;12.40;;;27.80;10.40;;;;;;5071237;28;20477;-69
2022/06/29 08:12:38;;;;;;;14.57;13.60;;;28.00;9.90;;;;;;5070851;28;20468;-69
2022/06/29 08:15:04;;;;;;;14.33;13.23;;;28.10;9.80;;;;;;5073126;28;20803;-69
2022/06/29 08:17:31;;;;;;;13.80;13.20;;;28.20;9.70;;;;;;5070979;28;20178;-69
2022/06/29 08:19:56;;;;;;;14.33;13.63;;;28.60;9.10;;;;;;5058534;28;20833;-68
2022/06/29 08:22:22;;;;;;;14.20;13.50;;;29.00;8.50;;;;;;5074913;28;20416;-69
2022/06/29 08:24:47;;;;;;;14.30;13.50;;;29.30;8.10;;;;;;5074842;28;20573;-68
2022/06/29 08:27:14;;;;;;;13.90;13.30;;;29.70;7.20;;;;;;5074800;28;20261;-68
2022/06/29 08:29:39;;;;;;;15.87;14.87;;;30.20;6.70;;;;;;5063705;28;20251;-70
2022/06/29 08:32:05;;;;;;;14.67;14.03;;;30.60;6.00;;;;;;5053412;28;20494;-68
2022/06/29 08:34:40;;;;;;;14.60;13.80;;;30.50;5.30;;;;;;5054896;28;20174;-68
2022/06/29 08:37:06;;;;;;;15.17;14.57;;;30.20;5.90;;;;;;5055125;28;20243;-68
2022/06/29 08:39:31;;;;;;;14.37;13.77;;;30.30;6.00;;;;;;5072546;28;20428;-68
2022/06/29 08:42:01;;;;;;;15.30;14.60;;;30.50;5.60;;;;;;5074490;28;20408;-68
2022/06/29 08:44:29;;;;;;;15.03;14.33;;;30.80;4.70;;;;;;5074687;28;20715;-67
2022/06/29 08:46:54;;;;;;;14.17;13.47;;;30.30;5.80;;;;;;5072474;28;20419;-68
2022/06/29 08:49:21;;;;;;;15.20;14.60;;;30.30;6.00;;;;;;5054091;28;20417;-68
2022/06/29 08:51:48;;;;;;;15.20;14.53;;;30.90;4.80;;;;;;5054045;28;20210;-68
2022/06/29 08:54:15;;;;;;;16.27;15.47;;;31.30;5.00;;;;;;5053750;28;20469;-67
2022/06/29 08:56:42;;;;;;;15.73;15.03;;;31.40;3.80;;;;;;5054342;28;20516;-68
2022/06/29 08:59:09;;;;;;;15.67;14.87;;;31.60;3.70;;;;;;5074034;28;20456;-67
2022/06/29 09:01:36;;;;;;;15.03;14.37;;;31.50;3.60;;;;;;5072209;28;20476;-69
2022/06/29 09:04:02;;;;;;;15.47;14.77;;;31.50;4.00;;;;;;5073105;28;20511;-67
2022/06/29 09:06:28;;;;;;;14.90;14.27;;;31.30;3.90;;;;;;5073000;28;20424;-68
2022/06/29 09:08:53;;;;;;;16.87;15.97;;;31.30;4.00;;;;;;5054592;28;20799;-68
2022/06/29 09:11:28;;;;;;;16.27;15.10;;;31.10;4.00;;;;;;5053312;28;20253;-68
2022/06/29 09:14:11;;;;;;;15.20;14.50;;;30.80;4.70;;;;;;5052038;28;20630;-68
2022/06/29 09:16:50;;;;;;;16.40;15.57;;;30.40;4.50;;;;;;5053771;28;20432;-68
2022/06/29 09:19:16;;;;;;;15.40;14.50;;;30.10;5.20;;;;;;5051875;28;20444;-69
2022/06/29 09:21:50;;;;;;;15.70;14.53;;;28.80;6.60;;;;;;5058068;28;20443;-68
2022/06/29 09:24:21;;;;;;;15.83;14.63;;;28.00;7.50;;;;;;5069427;28;20911;-69
2022/06/29 09:26:52;;;;;;;13.73;13.13;;;28.00;7.90;;;;;;5067373;28;20499;-69
2022/06/29 09:29:23;;;;;;;14.03;13.33;;;27.90;8.30;;;;;;5069402;28;20428;-69
2022/06/29 09:32:04;;;;;;;14.63;13.93;;;27.80;7.90;;;;;;5071027;28;20420;-71
2022/06/29 09:34:30;;;;;;;13.33;12.63;;;27.60;8.10;;;;;;5071284;28;20489;-68
2022/06/29 09:36:57;;;;;;;13.83;13.13;;;27.60;8.60;;;;;;5069866;28;20514;-70
2022/06/29 09:39:38;;;;;;;12.73;12.13;;;27.50;8.80;;;;;;5070198;28;20503;-68
2022/06/29 09:42:09;;;;;;;14.10;13.40;;;27.40;8.90;;;;;;5070579;28;20485;-68
2022/06/29 09:44:35;;;;;;;13.23;12.70;;;27.20;9.10;;;;;;5067582;28;20428;-68
2022/06/29 09:47:05;;;;;;;13.93;13.23;;;26.70;8.50;;;;;;5049912;28;20425;-69
2022/06/29 09:49:33;;;;;;;12.77;11.97;;;26.10;9.90;;;;;;5049318;28;20421;-67
2022/06/29 09:52:00;;;;;;;12.30;11.70;;;26.20;10.70;;;;;;5051240;28;20764;-68
2022/06/29 09:54:31;;;;;;;13.27;12.67;;;26.30;10.10;;;;;;5053989;28;20484;-68
2022/06/29 09:56:59;;;;;;;13.07;12.47;;;26.20;10.10;;;;;;5071994;28;20459;-68
2022/06/29 10:02:36;;;;;;;13.00;12.40;;;26.40;11.10;;;;;;5048068;28;20532;-69
2022/06/29 10:05:05;;;;;;;12.90;12.33;;;26.60;10.80;;;;;;5053189;28;20405;-68
2022/06/29 10:07:32;;;;;;;13.47;12.87;;;26.80;9.90;;;;;;5052945;28;20406;-69
2022/06/29 10:09:59;;;;;;;13.90;13.20;;;26.90;9.90;;;;;;5059681;28;20458;-69
2022/06/29 10:15:45;;;;;;;13.13;12.53;;;26.50;10.00;;;;;;5072029;28;20423;-68
2022/06/29 10:18:18;;;;;;;13.50;12.90;;;26.80;9.50;;;;;;5071847;28;20423;-69
2022/06/29 10:20:48;;;;;;;12.93;12.33;;;27.00;9.20;;;;;;5058599;28;20437;-68
2022/06/29 10:23:41;;;;;;;14.50;13.80;;;27.20;8.90;;;;;;5052819;28;20425;-67
2022/06/29 10:26:37;;;;;;;13.43;12.93;;;27.10;8.50;;;;;;5050616;28;20409;-68
2022/06/29 10:29:05;;;;;;;14.83;14.03;;;27.30;8.70;;;;;;5051058;28;20419;-68
2022/06/29 10:31:49;;;;;;;13.43;12.93;;;27.40;8.70;;;;;;5051382;28;20429;-68
2022/06/29 10:34:34;;;;;;;14.17;13.47;;;27.40;8.10;;;;;;5051368;28;20467;-68
2022/06/29 10:37:02;;;;;;;13.57;12.87;;;27.50;8.50;;;;;;5051469;28;20416;-68
2022/06/29 10:39:49;;;;;;;14.57;13.77;;;27.60;8.40;;;;;;5055311;28;20818;-68
2022/06/29 10:45:18;;;;;;;14.53;13.83;;;27.20;8.90;;;;;;5072376;28;20517;-68
2022/06/29 10:47:52;;;;;;;14.33;13.57;;;27.40;8.80;;;;;;5066292;28;20769;-68
2022/06/29 10:50:21;;;;;;;12.83;12.30;;;27.60;8.70;;;;;;5052145;28;20436;-68
2022/06/29 10:52:58;;;;;;;14.17;13.47;;;27.60;8.70;;;;;;5052447;28;20461;-69
2022/06/29 10:55:27;;;;;;;14.50;13.80;;;27.90;8.00;;;;;;5052546;28;20401;-68
2022/06/29 10:57:54;;;;;;;16.17;14.93;;;28.00;8.00;;;;;;5058649;28;20420;-68
2022/06/29 11:00:25;;;;;;;15.57;14.60;;;28.20;8.00;;;;;;5071238;28;20443;-67
2022/06/29 11:02:51;;;;;;;14.13;13.33;;;28.40;7.70;;;;;;5070896;28;20424;-69
2022/06/29 11:05:16;;;;;;;13.47;12.77;;;28.60;7.60;;;;;;5071177;28;20915;-69
2022/06/29 11:13:23;;;;;;;14.33;13.53;;;29.30;6.30;;;;;;5051531;28;20475;-69
2022/06/29 11:15:51;;;;;;;14.97;13.50;;;29.50;5.80;;;;;;5051243;28;20550;-68
2022/06/29 11:18:21;;;;;;;13.50;12.90;;;28.70;7.10;;;;;;5053344;28;20413;-68
2022/06/29 11:20:51;;;;;;;14.50;13.80;;;28.10;7.60;;;;;;5050999;28;20420;-68
2022/06/29 11:23:19;;;;;;;14.27;13.37;;;27.90;7.80;;;;;;5051018;28;21038;-68
2022/06/29 11:25:49;;;;;;;18.03;13.93;;;28.20;7.90;;;;;;5053103;28;20417;-68
2022/06/29 11:28:19;;;;;;;14.67;13.97;;;28.20;7.80;;;;;;5068270;28;20423;-68
2022/06/29 11:31:08;;;;;;;13.40;12.70;;;28.30;7.80;;;;;;5074408;28;21008;-67
2022/06/29 11:33:36;;;;;;;13.00;12.40;;;26.80;9.50;;;;;;5074132;28;20464;-68
2022/06/29 11:36:07;;;;;;;13.87;12.97;;;26.80;10.20;;;;;;5074428;28;20417;-68
2022/06/29 11:38:38;;;;;;;13.80;13.10;;;27.50;9.00;;;;;;5056825;28;21138;-69
2022/06/29 11:44:28;;;;;;;13.80;13.13;;;27.60;8.70;;;;;;5049969;28;20482;-69
2022/06/29 11:46:56;;;;;;;12.90;12.30;;;27.80;8.50;;;;;;5057981;28;20978;-68
2022/06/29 11:49:36;;;;;;;15.73;14.70;;;27.40;9.20;;;;;;5069415;28;20424;-69
2022/06/29 11:52:05;;;;;;;13.57;12.60;;;27.50;8.60;;;;;;5049628;28;20934;-69
2022/06/29 11:54:41;;;;;;;13.27;12.63;;;27.50;8.50;;;;;;5049726;28;20882;-69
2022/06/29 11:57:14;;;;;;;13.30;12.60;;;27.70;8.40;;;;;;5049364;28;20421;-70
2022/06/29 11:59:41;;;;;;;13.30;12.70;;;27.90;8.10;;;;;;5050340;28;20445;-69
2022/06/29 12:02:07;;;;;;;13.20;12.60;;;27.80;7.10;;;;;;5066708;28;20432;-70
2022/06/29 12:04:36;;;;;;;13.00;12.30;;;27.20;8.50;;;;;;5068546;28;20975;-69
2022/06/29 12:07:06;;;;;;;14.90;14.10;;;26.80;8.50;;;;;;5069560;28;20428;-69
2022/06/29 12:09:32;;;;;;;13.53;12.83;;;26.80;8.50;;;;;;5051441;28;20798;-69
2022/06/29 12:11:58;;;;;;;13.30;12.70;;;26.40;9.30;;;;;;5053109;28;20525;-68
2022/06/29 12:14:24;;;;;;;13.07;12.43;;;26.10;10.30;;;;;;5061846;28;20902;-69
2022/06/29 12:16:49;;;;;;;13.27;12.60;;;26.30;9.90;;;;;;5047402;28;20425;-72
2022/06/29 12:19:15;;;;;;;13.60;12.80;;;26.20;10.60;;;;;;5082515;28;20265;-70
2022/06/29 12:21:40;;;;;;;12.73;12.23;;;26.50;10.30;;;;;;5089613;28;20236;-70
2022/06/29 12:24:06;;;;;;;13.97;13.27;;;26.50;10.20;;;;;;5087101;28;20541;-69
2022/06/29 12:26:32;;;;;;;13.70;13.00;;;26.40;10.80;;;;;;5069965;28;20182;-70
2022/06/29 12:28:58;;;;;;;12.70;12.10;;;26.50;10.10;;;;;;5068510;28;20182;-72
2022/06/29 12:31:23;;;;;;;14.33;13.53;;;26.60;9.90;;;;;;5067727;28;20786;-70
2022/06/29 12:33:49;;;;;;;13.40;12.73;;;26.80;9.50;;;;;;5068913;28;20673;-71
2022/06/29 12:36:14;;;;;;;12.60;12.10;;;27.00;9.50;;;;;;5067842;28;20293;-71
2022/06/29 12:38:40;;;;;;;14.43;13.20;;;27.10;9.10;;;;;;5066178;28;20185;-70
2022/06/29 12:41:07;;;;;;;15.47;14.30;;;27.20;9.10;;;;;;5085431;28;20762;-71
2022/06/29 12:43:32;;;;;;;12.90;12.07;;;27.60;8.60;;;;;;5089042;28;20204;-70
2022/06/29 12:45:59;;;;;;;13.67;13.07;;;27.60;7.80;;;;;;5088877;28;20411;-69
2022/06/29 12:48:25;;;;;;;13.50;12.80;;;27.80;7.90;;;;;;5073005;28;20178;-71
2022/06/29 12:50:50;;;;;;;14.10;13.40;;;27.80;7.60;;;;;;5068691;28;20929;-72
2022/06/29 12:53:16;;;;;;;14.00;13.20;;;27.60;7.70;;;;;;5068356;28;20208;-72
2022/06/29 12:55:41;;;;;;;15.63;14.70;;;28.00;7.60;;;;;;5066744;28;20687;-70
2022/06/29 12:58:08;;;;;;;14.10;13.43;;;28.20;7.40;;;;;;5067013;28;20231;-70
2022/06/29 13:00:34;;;;;;;14.57;13.77;;;28.20;7.80;;;;;;5051667;28;20732;-70
2022/06/29 13:03:00;;;;;;;13.77;13.17;;;28.40;7.80;;;;;;5052425;28;20431;-67
2022/06/29 13:05:25;;;;;;;15.80;14.93;;;28.60;7.30;;;;;;5047402;28;20190;-66
2022/06/29 13:07:51;;;;;;;15.20;14.30;;;28.40;7.20;;;;;;5047297;28;20190;-66
2022/06/29 13:10:17;;;;;;;14.70;13.90;;;28.10;7.40;;;;;;5050597;28;20206;-73